sensor_id;sensor_type;location;lat;lon;timestamp;P1;durP1;ratioP1;P2;durP2;ratioP2
55076;SDS011;40971;44.702;11.030;2022-12-07T00:01:10;10.27;;;4.32;;
55076;SDS011;40971;44.702;11.030;2022-12-07T00:03:37;18.45;;;6.95;;
55076;SDS011;40971;44.702;11.030;2022-12-07T00:06:05;12.80;;;4.63;;
55076;SDS011;40971;44.702;11.030;2022-12-07T00:08:32;28.00;;;5.25;;
55076;SDS011;40971;44.702;11.030;2022-12-07T00:11:09;17.98;;;6.72;;
55076;SDS011;40971;44.702;11.030;2022-12-07T00:13:39;15.90;;;7.10;;
55076;SDS011;40971;44.702;11.030;2022-12-07T00:16:05;16.27;;;8.15;;
55076;SDS011;40971;44.702;11.030;2022-12-07T00:18:31;15.40;;;6.70;;
55076;SDS011;40971;44.702;11.030;2022-12-07T00:21:00;18.98;;;6.50;;
55076;SDS011;40971;44.702;11.030;2022-12-07T00:23:27;15.60;;;6.38;;
55076;SDS011;40971;44.702;11.030;2022-12-07T00:25:52;11.45;;;6.50;;
55076;SDS011;40971;44.702;11.030;2022-12-07T00:28:18;13.90;;;5.63;;
55076;SDS011;40971;44.702;11.030;2022-12-07T00:30:43;10.52;;;5.22;;
55076;SDS011;40971;44.702;11.030;2022-12-07T00:33:09;10.55;;;5.65;;
55076;SDS011;40971;44.702;11.030;2022-12-07T00:35:34;27.92;;;8.13;;
55076;SDS011;40971;44.702;11.030;2022-12-07T00:38:00;15.98;;;7.70;;
55076;SDS011;40971;44.702;11.030;2022-12-07T00:40:25;26.42;;;9.65;;
55076;SDS011;40971;44.702;11.030;2022-12-07T00:42:50;13.05;;;4.80;;
55076;SDS011;40971;44.702;11.030;2022-12-07T00:45:16;11.43;;;6.85;;
55076;SDS011;40971;44.702;11.030;2022-12-07T00:47:41;9.50;;;5.95;;
55076;SDS011;40971;44.702;11.030;2022-12-07T00:50:07;7.70;;;4.97;;
55076;SDS011;40971;44.702;11.030;2022-12-07T00:52:33;15.80;;;4.97;;
55076;SDS011;40971;44.702;11.030;2022-12-07T00:54:58;12.98;;;6.85;;
55076;SDS011;40971;44.702;11.030;2022-12-07T00:57:23;11.15;;;4.97;;
55076;SDS011;40971;44.702;11.030;2022-12-07T00:59:49;11.55;;;6.38;;
55076;SDS011;40971;44.702;11.030;2022-12-07T01:02:14;18.60;;;8.02;;
55076;SDS011;40971;44.702;11.030;2022-12-07T01:04:40;16.27;;;9.10;;
55076;SDS011;40971;44.702;11.030;2022-12-07T01:07:05;19.58;;;6.88;;
55076;SDS011;40971;44.702;11.030;2022-12-07T01:09:31;16.27;;;4.97;;
55076;SDS011;40971;44.702;11.030;2022-12-07T01:11:56;13.32;;;7.03;;
55076;SDS011;40971;44.702;11.030;2022-12-07T01:14:21;19.90;;;5.57;;
55076;SDS011;40971;44.702;11.030;2022-12-07T01:16:47;23.02;;;8.00;;
55076;SDS011;40971;44.702;11.030;2022-12-07T01:19:12;13.85;;;5.82;;
55076;SDS011;40971;44.702;11.030;2022-12-07T01:21:38;8.73;;;5.43;;
55076;SDS011;40971;44.702;11.030;2022-12-07T01:24:04;17.25;;;8.02;;
55076;SDS011;40971;44.702;11.030;2022-12-07T01:26:32;15.57;;;7.53;;
55076;SDS011;40971;44.702;11.030;2022-12-07T01:28:57;15.10;;;6.70;;
55076;SDS011;40971;44.702;11.030;2022-12-07T01:31:24;17.90;;;7.30;;
55076;SDS011;40971;44.702;11.030;2022-12-07T01:33:52;10.85;;;5.85;;
55076;SDS011;40971;44.702;11.030;2022-12-07T01:38:50;14.65;;;7.80;;
55076;SDS011;40971;44.702;11.030;2022-12-07T01:41:19;17.08;;;6.25;;
55076;SDS011;40971;44.702;11.030;2022-12-07T01:47:00;17.40;;;7.93;;
55076;SDS011;40971;44.702;11.030;2022-12-07T01:51:58;22.80;;;6.47;;
55076;SDS011;40971;44.702;11.030;2022-12-07T01:54:32;20.40;;;8.02;;
55076;SDS011;40971;44.702;11.030;2022-12-07T01:56:59;22.02;;;8.07;;
55076;SDS011;40971;44.702;11.030;2022-12-07T01:59:26;13.70;;;7.50;;
55076;SDS011;40971;44.702;11.030;2022-12-07T02:01:53;20.85;;;10.02;;
55076;SDS011;40971;44.702;11.030;2022-12-07T02:04:20;24.08;;;6.95;;
55076;SDS011;40971;44.702;11.030;2022-12-07T02:06:46;16.02;;;7.25;;
55076;SDS011;40971;44.702;11.030;2022-12-07T02:09:12;17.00;;;6.95;;
55076;SDS011;40971;44.702;11.030;2022-12-07T02:11:38;20.98;;;9.13;;
55076;SDS011;40971;44.702;11.030;2022-12-07T02:14:04;18.88;;;7.22;;
55076;SDS011;40971;44.702;11.030;2022-12-07T02:30:00;12.90;;;8.45;;
55076;SDS011;40971;44.702;11.030;2022-12-07T02:35:18;31.08;;;7.45;;
55076;SDS011;40971;44.702;11.030;2022-12-07T02:43:21;19.92;;;6.80;;
55076;SDS011;40971;44.702;11.030;2022-12-07T02:45:51;16.13;;;7.80;;
55076;SDS011;40971;44.702;11.030;2022-12-07T02:48:18;29.55;;;8.32;;
55076;SDS011;40971;44.702;11.030;2022-12-07T02:50:47;16.02;;;8.18;;
55076;SDS011;40971;44.702;11.030;2022-12-07T02:53:34;21.02;;;7.25;;
55076;SDS011;40971;44.702;11.030;2022-12-07T03:02:28;21.73;;;6.05;;
55076;SDS011;40971;44.702;11.030;2022-12-07T03:18:38;16.00;;;7.47;;
55076;SDS011;40971;44.702;11.030;2022-12-07T03:21:11;13.85;;;6.25;;
55076;SDS011;40971;44.702;11.030;2022-12-07T03:23:40;18.42;;;7.38;;
55076;SDS011;40971;44.702;11.030;2022-12-07T03:26:11;19.23;;;9.25;;
55076;SDS011;40971;44.702;11.030;2022-12-07T03:28:41;15.05;;;6.95;;
55076;SDS011;40971;44.702;11.030;2022-12-07T03:31:46;15.90;;;6.97;;
55076;SDS011;40971;44.702;11.030;2022-12-07T03:39:29;20.45;;;7.53;;
55076;SDS011;40971;44.702;11.030;2022-12-07T03:42:02;24.90;;;6.38;;
55076;SDS011;40971;44.702;11.030;2022-12-07T03:44:30;24.08;;;7.28;;
55076;SDS011;40971;44.702;11.030;2022-12-07T03:52:36;18.88;;;9.63;;
55076;SDS011;40971;44.702;11.030;2022-12-07T03:55:06;19.92;;;9.23;;
55076;SDS011;40971;44.702;11.030;2022-12-07T03:57:33;27.42;;;6.75;;
55076;SDS011;40971;44.702;11.030;2022-12-07T04:00:03;27.45;;;9.63;;
55076;SDS011;40971;44.702;11.030;2022-12-07T04:02:30;26.02;;;9.73;;
55076;SDS011;40971;44.702;11.030;2022-12-07T04:04:55;29.13;;;9.88;;
55076;SDS011;40971;44.702;11.030;2022-12-07T04:07:21;12.13;;;6.68;;
55076;SDS011;40971;44.702;11.030;2022-12-07T04:09:47;16.15;;;7.85;;
55076;SDS011;40971;44.702;11.030;2022-12-07T04:12:12;14.48;;;6.70;;
55076;SDS011;40971;44.702;11.030;2022-12-07T04:14:38;25.58;;;6.70;;
55076;SDS011;40971;44.702;11.030;2022-12-07T04:17:03;26.98;;;10.48;;
55076;SDS011;40971;44.702;11.030;2022-12-07T04:19:30;24.83;;;9.38;;
55076;SDS011;40971;44.702;11.030;2022-12-07T04:21:57;30.20;;;9.20;;
55076;SDS011;40971;44.702;11.030;2022-12-07T04:24:24;16.55;;;9.77;;
55076;SDS011;40971;44.702;11.030;2022-12-07T04:26:50;17.45;;;7.53;;
55076;SDS011;40971;44.702;11.030;2022-12-07T04:29:16;18.13;;;6.22;;
55076;SDS011;40971;44.702;11.030;2022-12-07T04:31:42;18.83;;;8.65;;
55076;SDS011;40971;44.702;11.030;2022-12-07T04:34:11;17.17;;;9.75;;
55076;SDS011;40971;44.702;11.030;2022-12-07T04:36:37;27.25;;;10.10;;
55076;SDS011;40971;44.702;11.030;2022-12-07T04:39:03;29.75;;;8.38;;
55076;SDS011;40971;44.702;11.030;2022-12-07T04:41:30;23.88;;;11.50;;
55076;SDS011;40971;44.702;11.030;2022-12-07T04:44:00;22.48;;;9.77;;
55076;SDS011;40971;44.702;11.030;2022-12-07T04:46:27;17.92;;;7.28;;
55076;SDS011;40971;44.702;11.030;2022-12-07T04:48:54;11.77;;;7.28;;
55076;SDS011;40971;44.702;11.030;2022-12-07T04:51:21;14.07;;;6.35;;
55076;SDS011;40971;44.702;11.030;2022-12-07T04:53:49;29.90;;;7.68;;
55076;SDS011;40971;44.702;11.030;2022-12-07T04:56:15;24.08;;;8.43;;
55076;SDS011;40971;44.702;11.030;2022-12-07T04:58:42;13.88;;;5.53;;
55076;SDS011;40971;44.702;11.030;2022-12-07T05:01:09;15.82;;;7.57;;
55076;SDS011;40971;44.702;11.030;2022-12-07T05:03:35;22.85;;;8.60;;
55076;SDS011;40971;44.702;11.030;2022-12-07T05:06:01;38.13;;;11.25;;
55076;SDS011;40971;44.702;11.030;2022-12-07T05:08:27;19.35;;;8.32;;
55076;SDS011;40971;44.702;11.030;2022-12-07T05:10:52;28.20;;;12.52;;
55076;SDS011;40971;44.702;11.030;2022-12-07T05:13:17;27.52;;;9.30;;
55076;SDS011;40971;44.702;11.030;2022-12-07T05:15:43;50.13;;;11.32;;
55076;SDS011;40971;44.702;11.030;2022-12-07T05:18:09;26.33;;;8.80;;
55076;SDS011;40971;44.702;11.030;2022-12-07T05:20:37;26.90;;;10.32;;
55076;SDS011;40971;44.702;11.030;2022-12-07T05:23:03;21.75;;;9.65;;
55076;SDS011;40971;44.702;11.030;2022-12-07T05:25:29;33.95;;;8.77;;
55076;SDS011;40971;44.702;11.030;2022-12-07T05:27:54;30.80;;;9.93;;
55076;SDS011;40971;44.702;11.030;2022-12-07T05:30:21;25.48;;;8.50;;
55076;SDS011;40971;44.702;11.030;2022-12-07T05:32:48;23.92;;;9.10;;
55076;SDS011;40971;44.702;11.030;2022-12-07T05:35:13;18.17;;;9.50;;
55076;SDS011;40971;44.702;11.030;2022-12-07T05:37:38;24.85;;;9.65;;
55076;SDS011;40971;44.702;11.030;2022-12-07T05:40:04;23.65;;;8.60;;
55076;SDS011;40971;44.702;11.030;2022-12-07T05:42:31;34.28;;;13.45;;
55076;SDS011;40971;44.702;11.030;2022-12-07T05:44:56;41.42;;;13.70;;
55076;SDS011;40971;44.702;11.030;2022-12-07T05:47:22;30.92;;;12.20;;
55076;SDS011;40971;44.702;11.030;2022-12-07T05:49:47;22.98;;;8.88;;
55076;SDS011;40971;44.702;11.030;2022-12-07T05:52:13;20.88;;;9.68;;
55076;SDS011;40971;44.702;11.030;2022-12-07T05:54:38;37.53;;;12.20;;
55076;SDS011;40971;44.702;11.030;2022-12-07T05:57:04;37.20;;;9.40;;
55076;SDS011;40971;44.702;11.030;2022-12-07T05:59:29;19.50;;;9.93;;
55076;SDS011;40971;44.702;11.030;2022-12-07T06:01:56;31.02;;;9.98;;
55076;SDS011;40971;44.702;11.030;2022-12-07T06:04:23;38.03;;;11.05;;
55076;SDS011;40971;44.702;11.030;2022-12-07T06:06:50;40.33;;;11.40;;
55076;SDS011;40971;44.702;11.030;2022-12-07T06:09:16;25.23;;;9.68;;
55076;SDS011;40971;44.702;11.030;2022-12-07T06:11:43;32.58;;;12.90;;
55076;SDS011;40971;44.702;11.030;2022-12-07T06:14:27;32.25;;;10.65;;
55076;SDS011;40971;44.702;11.030;2022-12-07T06:16:53;27.48;;;11.63;;
55076;SDS011;40971;44.702;11.030;2022-12-07T06:19:18;19.88;;;8.68;;
55076;SDS011;40971;44.702;11.030;2022-12-07T06:21:44;34.30;;;11.35;;
55076;SDS011;40971;44.702;11.030;2022-12-07T06:24:13;26.77;;;10.02;;
55076;SDS011;40971;44.702;11.030;2022-12-07T06:26:39;27.58;;;11.43;;
55076;SDS011;40971;44.702;11.030;2022-12-07T06:29:05;42.15;;;13.80;;
55076;SDS011;40971;44.702;11.030;2022-12-07T06:31:31;24.80;;;10.43;;
55076;SDS011;40971;44.702;11.030;2022-12-07T06:34:00;29.10;;;12.07;;
55076;SDS011;40971;44.702;11.030;2022-12-07T06:36:27;52.45;;;15.75;;
55076;SDS011;40971;44.702;11.030;2022-12-07T06:38:53;37.13;;;14.52;;
55076;SDS011;40971;44.702;11.030;2022-12-07T06:41:18;35.45;;;13.68;;
55076;SDS011;40971;44.702;11.030;2022-12-07T06:43:44;38.08;;;14.60;;
55076;SDS011;40971;44.702;11.030;2022-12-07T06:46:09;28.27;;;13.00;;
55076;SDS011;40971;44.702;11.030;2022-12-07T06:48:35;32.17;;;15.13;;
55076;SDS011;40971;44.702;11.030;2022-12-07T06:51:00;46.45;;;14.77;;
55076;SDS011;40971;44.702;11.030;2022-12-07T06:53:26;37.55;;;12.52;;
55076;SDS011;40971;44.702;11.030;2022-12-07T06:55:51;49.80;;;14.45;;
55076;SDS011;40971;44.702;11.030;2022-12-07T06:58:17;26.98;;;12.57;;
55076;SDS011;40971;44.702;11.030;2022-12-07T07:00:43;48.22;;;13.20;;
55076;SDS011;40971;44.702;11.030;2022-12-07T07:03:09;36.50;;;13.10;;
55076;SDS011;40971;44.702;11.030;2022-12-07T07:05:35;31.42;;;12.25;;
55076;SDS011;40971;44.702;11.030;2022-12-07T07:08:00;38.65;;;10.32;;
55076;SDS011;40971;44.702;11.030;2022-12-07T07:10:26;34.10;;;11.93;;
55076;SDS011;40971;44.702;11.030;2022-12-07T07:12:51;38.58;;;13.57;;
55076;SDS011;40971;44.702;11.030;2022-12-07T07:15:17;37.08;;;13.15;;
55076;SDS011;40971;44.702;11.030;2022-12-07T07:17:42;35.53;;;14.73;;
55076;SDS011;40971;44.702;11.030;2022-12-07T07:20:08;49.45;;;13.50;;
55076;SDS011;40971;44.702;11.030;2022-12-07T07:22:34;36.17;;;13.50;;
55076;SDS011;40971;44.702;11.030;2022-12-07T07:24:59;33.92;;;13.02;;
55076;SDS011;40971;44.702;11.030;2022-12-07T07:27:25;41.97;;;11.80;;
55076;SDS011;40971;44.702;11.030;2022-12-07T07:29:50;40.25;;;14.18;;
55076;SDS011;40971;44.702;11.030;2022-12-07T07:32:16;41.00;;;15.38;;
55076;SDS011;40971;44.702;11.030;2022-12-07T07:34:41;30.88;;;14.18;;
55076;SDS011;40971;44.702;11.030;2022-12-07T07:37:06;26.85;;;12.93;;
55076;SDS011;40971;44.702;11.030;2022-12-07T07:39:32;50.03;;;13.18;;
55076;SDS011;40971;44.702;11.030;2022-12-07T07:41:57;41.35;;;15.75;;
55076;SDS011;40971;44.702;11.030;2022-12-07T07:44:23;40.67;;;10.85;;
55076;SDS011;40971;44.702;11.030;2022-12-07T07:46:48;31.20;;;11.88;;
55076;SDS011;40971;44.702;11.030;2022-12-07T07:49:14;32.25;;;11.65;;
55076;SDS011;40971;44.702;11.030;2022-12-07T07:51:39;42.92;;;13.52;;
55076;SDS011;40971;44.702;11.030;2022-12-07T07:54:05;25.27;;;10.98;;
55076;SDS011;40971;44.702;11.030;2022-12-07T07:56:30;36.80;;;14.23;;
55076;SDS011;40971;44.702;11.030;2022-12-07T07:58:55;31.05;;;14.15;;
55076;SDS011;40971;44.702;11.030;2022-12-07T08:01:21;43.30;;;15.88;;
55076;SDS011;40971;44.702;11.030;2022-12-07T08:03:46;32.28;;;13.15;;
55076;SDS011;40971;44.702;11.030;2022-12-07T08:06:12;24.13;;;11.40;;
55076;SDS011;40971;44.702;11.030;2022-12-07T08:08:38;24.00;;;11.45;;
55076;SDS011;40971;44.702;11.030;2022-12-07T08:11:06;34.38;;;15.43;;
55076;SDS011;40971;44.702;11.030;2022-12-07T08:13:33;37.55;;;14.10;;
55076;SDS011;40971;44.702;11.030;2022-12-07T08:15:59;38.53;;;13.98;;
55076;SDS011;40971;44.702;11.030;2022-12-07T08:18:29;28.70;;;11.88;;
55076;SDS011;40971;44.702;11.030;2022-12-07T08:21:01;35.97;;;17.67;;
55076;SDS011;40971;44.702;11.030;2022-12-07T08:23:27;33.88;;;15.55;;
55076;SDS011;40971;44.702;11.030;2022-12-07T08:25:52;31.85;;;13.43;;
55076;SDS011;40971;44.702;11.030;2022-12-07T08:28:18;24.70;;;14.15;;
55076;SDS011;40971;44.702;11.030;2022-12-07T08:30:43;34.33;;;14.13;;
55076;SDS011;40971;44.702;11.030;2022-12-07T08:33:09;29.45;;;13.32;;
55076;SDS011;40971;44.702;11.030;2022-12-07T08:35:35;26.52;;;11.90;;
55076;SDS011;40971;44.702;11.030;2022-12-07T08:38:01;31.95;;;13.05;;
55076;SDS011;40971;44.702;11.030;2022-12-07T08:40:27;35.75;;;12.45;;
55076;SDS011;40971;44.702;11.030;2022-12-07T08:42:53;31.90;;;11.85;;
55076;SDS011;40971;44.702;11.030;2022-12-07T08:45:19;21.60;;;11.35;;
55076;SDS011;40971;44.702;11.030;2022-12-07T08:47:47;37.63;;;15.50;;
55076;SDS011;40971;44.702;11.030;2022-12-07T08:50:24;26.30;;;11.55;;
55076;SDS011;40971;44.702;11.030;2022-12-07T08:52:51;26.50;;;11.52;;
55076;SDS011;40971;44.702;11.030;2022-12-07T08:55:19;26.73;;;15.20;;
55076;SDS011;40971;44.702;11.030;2022-12-07T08:57:46;19.75;;;12.73;;
55076;SDS011;40971;44.702;11.030;2022-12-07T09:00:11;38.80;;;14.98;;
55076;SDS011;40971;44.702;11.030;2022-12-07T09:02:37;28.25;;;12.68;;
55076;SDS011;40971;44.702;11.030;2022-12-07T09:05:03;24.80;;;11.30;;
55076;SDS011;40971;44.702;11.030;2022-12-07T09:07:29;21.60;;;11.02;;
55076;SDS011;40971;44.702;11.030;2022-12-07T09:09:55;37.75;;;14.85;;
55076;SDS011;40971;44.702;11.030;2022-12-07T09:12:21;35.78;;;14.85;;
55076;SDS011;40971;44.702;11.030;2022-12-07T09:14:46;43.80;;;14.02;;
55076;SDS011;40971;44.702;11.030;2022-12-07T09:17:12;17.38;;;9.40;;
55076;SDS011;40971;44.702;11.030;2022-12-07T09:19:38;47.15;;;16.75;;
55076;SDS011;40971;44.702;11.030;2022-12-07T09:22:04;30.27;;;11.02;;
55076;SDS011;40971;44.702;11.030;2022-12-07T09:24:30;36.88;;;15.38;;
55076;SDS011;40971;44.702;11.030;2022-12-07T09:26:56;31.15;;;12.77;;
55076;SDS011;40971;44.702;11.030;2022-12-07T09:29:22;22.48;;;11.05;;
55076;SDS011;40971;44.702;11.030;2022-12-07T09:31:48;22.75;;;11.75;;
55076;SDS011;40971;44.702;11.030;2022-12-07T09:34:13;28.10;;;13.02;;
55076;SDS011;40971;44.702;11.030;2022-12-07T09:36:39;29.67;;;14.43;;
55076;SDS011;40971;44.702;11.030;2022-12-07T09:39:04;33.42;;;14.77;;
55076;SDS011;40971;44.702;11.030;2022-12-07T09:41:30;31.13;;;13.70;;
55076;SDS011;40971;44.702;11.030;2022-12-07T09:44:00;32.65;;;13.55;;
55076;SDS011;40971;44.702;11.030;2022-12-07T09:46:38;34.53;;;15.68;;
55076;SDS011;40971;44.702;11.030;2022-12-07T09:49:08;30.52;;;12.45;;
55076;SDS011;40971;44.702;11.030;2022-12-07T09:51:38;32.78;;;11.80;;
55076;SDS011;40971;44.702;11.030;2022-12-07T09:54:04;36.80;;;15.45;;
55076;SDS011;40971;44.702;11.030;2022-12-07T09:56:29;36.33;;;14.27;;
55076;SDS011;40971;44.702;11.030;2022-12-07T09:58:59;31.58;;;14.07;;
55076;SDS011;40971;44.702;11.030;2022-12-07T10:01:28;26.30;;;10.85;;
55076;SDS011;40971;44.702;11.030;2022-12-07T10:04:18;25.45;;;12.68;;
55076;SDS011;40971;44.702;11.030;2022-12-07T10:06:45;33.03;;;14.15;;
55076;SDS011;40971;44.702;11.030;2022-12-07T10:09:13;27.67;;;13.90;;
55076;SDS011;40971;44.702;11.030;2022-12-07T10:14:30;40.42;;;13.52;;
55076;SDS011;40971;44.702;11.030;2022-12-07T10:16:58;30.90;;;11.80;;
55076;SDS011;40971;44.702;11.030;2022-12-07T10:19:31;47.20;;;16.05;;
55076;SDS011;40971;44.702;11.030;2022-12-07T10:21:59;31.10;;;13.10;;
55076;SDS011;40971;44.702;11.030;2022-12-07T10:24:29;34.80;;;15.05;;
55076;SDS011;40971;44.702;11.030;2022-12-07T10:26:55;31.90;;;12.57;;
55076;SDS011;40971;44.702;11.030;2022-12-07T10:29:31;23.27;;;12.55;;
55076;SDS011;40971;44.702;11.030;2022-12-07T10:32:03;35.28;;;17.52;;
55076;SDS011;40971;44.702;11.030;2022-12-07T10:34:49;36.03;;;12.20;;
55076;SDS011;40971;44.702;11.030;2022-12-07T10:37:19;41.75;;;17.88;;
55076;SDS011;40971;44.702;11.030;2022-12-07T10:42:20;30.33;;;14.43;;
55076;SDS011;40971;44.702;11.030;2022-12-07T10:44:49;26.15;;;12.70;;
55076;SDS011;40971;44.702;11.030;2022-12-07T10:47:36;41.75;;;15.52;;
55076;SDS011;40971;44.702;11.030;2022-12-07T11:01:22;26.75;;;12.63;;
55076;SDS011;40971;44.702;11.030;2022-12-07T11:03:58;36.55;;;14.88;;
55076;SDS011;40971;44.702;11.030;2022-12-07T11:07:28;25.90;;;12.18;;
55076;SDS011;40971;44.702;11.030;2022-12-07T11:09:55;36.60;;;11.43;;
55076;SDS011;40971;44.702;11.030;2022-12-07T11:18:39;33.92;;;13.55;;
55076;SDS011;40971;44.702;11.030;2022-12-07T11:24:40;30.90;;;13.82;;
55076;SDS011;40971;44.702;11.030;2022-12-07T11:27:24;26.17;;;12.57;;
55076;SDS011;40971;44.702;11.030;2022-12-07T11:38:15;29.83;;;12.93;;
55076;SDS011;40971;44.702;11.030;2022-12-07T11:40:43;25.45;;;12.15;;
55076;SDS011;40971;44.702;11.030;2022-12-07T11:43:32;42.67;;;16.13;;
55076;SDS011;40971;44.702;11.030;2022-12-07T11:46:02;27.77;;;13.43;;
55076;SDS011;40971;44.702;11.030;2022-12-07T11:51:18;31.73;;;13.38;;
55076;SDS011;40971;44.702;11.030;2022-12-07T11:56:25;30.65;;;14.07;;
55076;SDS011;40971;44.702;11.030;2022-12-07T11:59:00;31.80;;;13.77;;
55076;SDS011;40971;44.702;11.030;2022-12-07T12:06:38;27.20;;;11.20;;
55076;SDS011;40971;44.702;11.030;2022-12-07T12:09:19;24.83;;;10.48;;
55076;SDS011;40971;44.702;11.030;2022-12-07T12:20:35;25.95;;;12.68;;
55076;SDS011;40971;44.702;11.030;2022-12-07T12:23:11;31.95;;;11.05;;
55076;SDS011;40971;44.702;11.030;2022-12-07T12:33:50;21.52;;;9.98;;
55076;SDS011;40971;44.702;11.030;2022-12-07T12:46:58;26.25;;;12.65;;
55076;SDS011;40971;44.702;11.030;2022-12-07T12:51:51;25.75;;;11.82;;
55076;SDS011;40971;44.702;11.030;2022-12-07T12:55:12;28.15;;;11.52;;
55076;SDS011;40971;44.702;11.030;2022-12-07T12:57:43;22.63;;;11.40;;
55076;SDS011;40971;44.702;11.030;2022-12-07T13:00:17;21.73;;;10.48;;
55076;SDS011;40971;44.702;11.030;2022-12-07T13:02:54;30.15;;;14.27;;
55076;SDS011;40971;44.702;11.030;2022-12-07T13:05:22;32.13;;;14.68;;
55076;SDS011;40971;44.702;11.030;2022-12-07T13:08:01;30.08;;;12.70;;
55076;SDS011;40971;44.702;11.030;2022-12-07T13:10:40;32.05;;;12.43;;
55076;SDS011;40971;44.702;11.030;2022-12-07T13:15:41;27.55;;;14.63;;
55076;SDS011;40971;44.702;11.030;2022-12-07T13:31:44;41.00;;;12.27;;
55076;SDS011;40971;44.702;11.030;2022-12-07T13:34:31;27.60;;;12.00;;
55076;SDS011;40971;44.702;11.030;2022-12-07T13:36:57;33.25;;;13.88;;
55076;SDS011;40971;44.702;11.030;2022-12-07T13:39:25;28.55;;;12.27;;
55076;SDS011;40971;44.702;11.030;2022-12-07T13:44:21;35.33;;;14.65;;
55076;SDS011;40971;44.702;11.030;2022-12-07T13:49:20;34.45;;;13.80;;
55076;SDS011;40971;44.702;11.030;2022-12-07T13:51:47;35.50;;;13.68;;
55076;SDS011;40971;44.702;11.030;2022-12-07T13:54:13;25.88;;;12.90;;
55076;SDS011;40971;44.702;11.030;2022-12-07T13:56:40;29.80;;;13.35;;
55076;SDS011;40971;44.702;11.030;2022-12-07T14:02:02;25.27;;;11.52;;
55076;SDS011;40971;44.702;11.030;2022-12-07T14:04:42;29.08;;;11.30;;
55076;SDS011;40971;44.702;11.030;2022-12-07T14:07:24;26.55;;;11.80;;
55076;SDS011;40971;44.702;11.030;2022-12-07T14:10:02;23.27;;;11.63;;
55076;SDS011;40971;44.702;11.030;2022-12-07T14:12:30;17.52;;;8.93;;
55076;SDS011;40971;44.702;11.030;2022-12-07T14:14:57;28.00;;;10.93;;
55076;SDS011;40971;44.702;11.030;2022-12-07T14:17:25;23.60;;;10.82;;
55076;SDS011;40971;44.702;11.030;2022-12-07T14:20:35;25.75;;;10.27;;
55076;SDS011;40971;44.702;11.030;2022-12-07T14:22:58;21.95;;;11.82;;
55076;SDS011;40971;44.702;11.030;2022-12-07T14:25:25;16.65;;;6.35;;
55076;SDS011;40971;44.702;11.030;2022-12-07T14:30:18;23.63;;;10.68;;
55076;SDS011;40971;44.702;11.030;2022-12-07T14:32:44;20.13;;;8.88;;
55076;SDS011;40971;44.702;11.030;2022-12-07T14:35:14;18.42;;;9.18;;
55076;SDS011;40971;44.702;11.030;2022-12-07T14:37:43;17.58;;;9.60;;
55076;SDS011;40971;44.702;11.030;2022-12-07T14:40:20;18.55;;;9.55;;
55076;SDS011;40971;44.702;11.030;2022-12-07T14:42:49;17.58;;;8.13;;
55076;SDS011;40971;44.702;11.030;2022-12-07T14:45:19;17.52;;;8.20;;
55076;SDS011;40971;44.702;11.030;2022-12-07T14:47:46;17.38;;;8.15;;
55076;SDS011;40971;44.702;11.030;2022-12-07T14:50:13;24.13;;;9.50;;
55076;SDS011;40971;44.702;11.030;2022-12-07T14:52:41;19.60;;;7.53;;
55076;SDS011;40971;44.702;11.030;2022-12-07T14:55:16;30.67;;;8.55;;
55076;SDS011;40971;44.702;11.030;2022-12-07T14:57:51;18.00;;;8.15;;
55076;SDS011;40971;44.702;11.030;2022-12-07T15:00:17;22.00;;;7.45;;
55076;SDS011;40971;44.702;11.030;2022-12-07T15:02:44;20.02;;;8.20;;
55076;SDS011;40971;44.702;11.030;2022-12-07T15:05:11;18.80;;;7.28;;
55076;SDS011;40971;44.702;11.030;2022-12-07T15:07:36;18.73;;;9.13;;
55076;SDS011;40971;44.702;11.030;2022-12-07T15:10:02;22.42;;;9.15;;
55076;SDS011;40971;44.702;11.030;2022-12-07T15:12:29;24.35;;;10.15;;
55076;SDS011;40971;44.702;11.030;2022-12-07T15:14:55;28.50;;;11.15;;
55076;SDS011;40971;44.702;11.030;2022-12-07T15:17:20;17.42;;;9.10;;
55076;SDS011;40971;44.702;11.030;2022-12-07T15:19:45;25.02;;;8.02;;
55076;SDS011;40971;44.702;11.030;2022-12-07T15:22:11;22.40;;;8.95;;
55076;SDS011;40971;44.702;11.030;2022-12-07T15:24:37;15.95;;;7.90;;
55076;SDS011;40971;44.702;11.030;2022-12-07T15:27:02;25.83;;;10.75;;
55076;SDS011;40971;44.702;11.030;2022-12-07T15:29:28;12.65;;;6.10;;
55076;SDS011;40971;44.702;11.030;2022-12-07T15:31:54;20.92;;;8.02;;
55076;SDS011;40971;44.702;11.030;2022-12-07T15:34:19;13.75;;;6.18;;
55076;SDS011;40971;44.702;11.030;2022-12-07T15:36:45;17.08;;;8.45;;
55076;SDS011;40971;44.702;11.030;2022-12-07T15:39:11;15.15;;;6.80;;
55076;SDS011;40971;44.702;11.030;2022-12-07T15:41:36;16.45;;;7.85;;
55076;SDS011;40971;44.702;11.030;2022-12-07T15:44:02;19.73;;;8.55;;
55076;SDS011;40971;44.702;11.030;2022-12-07T15:46:46;10.82;;;7.45;;
55076;SDS011;40971;44.702;11.030;2022-12-07T15:49:13;12.68;;;6.68;;
55076;SDS011;40971;44.702;11.030;2022-12-07T15:51:40;15.48;;;7.50;;
55076;SDS011;40971;44.702;11.030;2022-12-07T15:54:06;18.27;;;7.57;;
55076;SDS011;40971;44.702;11.030;2022-12-07T15:56:32;14.18;;;6.70;;
55076;SDS011;40971;44.702;11.030;2022-12-07T15:58:58;20.85;;;8.43;;
55076;SDS011;40971;44.702;11.030;2022-12-07T16:01:23;13.27;;;6.75;;
55076;SDS011;40971;44.702;11.030;2022-12-07T16:03:49;17.08;;;7.80;;
55076;SDS011;40971;44.702;11.030;2022-12-07T16:06:17;15.18;;;8.00;;
55076;SDS011;40971;44.702;11.030;2022-12-07T16:08:44;20.55;;;9.77;;
55076;SDS011;40971;44.702;11.030;2022-12-07T16:11:10;17.25;;;7.05;;
55076;SDS011;40971;44.702;11.030;2022-12-07T16:13:36;19.20;;;7.60;;
55076;SDS011;40971;44.702;11.030;2022-12-07T16:16:06;14.57;;;5.63;;
55076;SDS011;40971;44.702;11.030;2022-12-07T16:18:35;20.60;;;8.05;;
55076;SDS011;40971;44.702;11.030;2022-12-07T16:21:01;13.45;;;5.30;;
55076;SDS011;40971;44.702;11.030;2022-12-07T16:23:27;13.07;;;7.40;;
55076;SDS011;40971;44.702;11.030;2022-12-07T16:25:52;18.30;;;6.50;;
55076;SDS011;40971;44.702;11.030;2022-12-07T16:28:18;16.48;;;7.88;;
55076;SDS011;40971;44.702;11.030;2022-12-07T16:30:43;12.63;;;5.85;;
55076;SDS011;40971;44.702;11.030;2022-12-07T16:33:09;16.35;;;7.57;;
55076;SDS011;40971;44.702;11.030;2022-12-07T16:35:37;12.32;;;6.60;;
55076;SDS011;40971;44.702;11.030;2022-12-07T16:38:06;21.42;;;8.48;;
55076;SDS011;40971;44.702;11.030;2022-12-07T16:40:31;14.80;;;6.97;;
55076;SDS011;40971;44.702;11.030;2022-12-07T16:42:57;9.80;;;5.65;;
55076;SDS011;40971;44.702;11.030;2022-12-07T16:45:23;14.05;;;7.22;;
55076;SDS011;40971;44.702;11.030;2022-12-07T16:47:48;11.68;;;5.28;;
55076;SDS011;40971;44.702;11.030;2022-12-07T16:50:13;10.30;;;5.32;;
55076;SDS011;40971;44.702;11.030;2022-12-07T16:52:39;11.23;;;5.85;;
55076;SDS011;40971;44.702;11.030;2022-12-07T16:55:04;23.95;;;10.23;;
55076;SDS011;40971;44.702;11.030;2022-12-07T16:57:30;13.32;;;5.97;;
55076;SDS011;40971;44.702;11.030;2022-12-07T16:59:56;12.07;;;7.55;;
55076;SDS011;40971;44.702;11.030;2022-12-07T17:02:22;15.18;;;6.25;;
55076;SDS011;40971;44.702;11.030;2022-12-07T17:04:47;16.38;;;6.25;;